Aivik — VOPP — position and weather

sailwx.info

Track history (hours):
 
Tides and Currents Weather Stations Pressure Air Temp Water Temp Dewpoint Dewpoint Depression Visibility Wind Speed Wind Dir Waves Ship Positions

Aivik

Last reported at 2016-Jan-20 11:27 UTC. Time now 2016-Feb-08 02:07 UTC.
Position N 25°35' W 080°05'.
Warning: this ship's position is 18 days out of date.

Length 109.9 m; beam 19.4 m; draft 5.9 m.

Type: Cargo ship. MMSI: 316150000.

Date/timePositionNaut miles runAvg speedWind from/ knotsBaromVisibWave heightAir tempDewpointWater temp
2016-Jan-20 11:27N 25°35' W 080°05'4 5.0
2016-Jan-20 10:33N 25°39' W 080°05'5 4.9
2016-Jan-20 09:33N 25°44' W 080°04'4 4.5
2016-Jan-20 08:33N 25°49' W 080°05'5 5.2
2016-Jan-20 07:33N 25°54' W 080°05'6 6.2
2016-Jan-20 06:33N 26°00' W 080°04'6 6.3
2016-Jan-20 05:32N 26°07' W 080°04'6 6.0
2016-Jan-20 04:31N 26°13' W 080°03'6 6.0
2016-Jan-20 03:31N 26°19' W 080°03'6 5.8
2016-Jan-20 02:30N 26°25' W 080°02'29 6.7
2016-Jan-19 22:08N 26°54' W 080°01'4 7.4
2016-Jan-19 21:33N 26°58' W 080°02'  
Track history (hours):
 
Tides and Currents Weather Stations Pressure Air Temp Water Temp Dewpoint Dewpoint Depression Visibility Wind Speed Wind Dir Waves Ship Positions

Aivik

Last reported at 2016-Jan-20 11:27 UTC. Time now 2016-Feb-08 02:07 UTC.
Position N 25°35' W 080°05'.
Warning: this ship's position is 18 days out of date.

Length 109.9 m; beam 19.4 m; draft 5.9 m.

Type: Cargo ship. MMSI: 316150000.

Date/timePositionNaut miles runAvg speedWind from/ knotsBaromVisibWave heightAir tempDewpointWater temp
2016-Jan-20 11:27N 25°35' W 080°05'4 5.0
2016-Jan-20 10:33N 25°39' W 080°05'5 4.9
2016-Jan-20 09:33N 25°44' W 080°04'4 4.5
2016-Jan-20 08:33N 25°49' W 080°05'5 5.2
2016-Jan-20 07:33N 25°54' W 080°05'6 6.2
2016-Jan-20 06:33N 26°00' W 080°04'6 6.3
2016-Jan-20 05:32N 26°07' W 080°04'6 6.0
2016-Jan-20 04:31N 26°13' W 080°03'6 6.0
2016-Jan-20 03:31N 26°19' W 080°03'6 5.8
2016-Jan-20 02:30N 26°25' W 080°02'29 6.7
2016-Jan-19 22:08N 26°54' W 080°01'4 7.4
2016-Jan-19 21:33N 26°58' W 080°02'  

Dump ship's entire track history